Weather at Haji Muhammad Sidik Airport

Public forecast

Using degrees Celsius for public forecast. Weather courtesy of forecast.io.

Closest aviation weather report (METAR) to Haji Muhammad Sidik Airport

Closest report is Sultan Aji Muhammad Sulaiman Sepinggan International Airport, 118.9 nm (220.2 km) E.

2024/07/17 20:00 (retrieved 21 minutes ago)

WALL 172000Z 25005KT 9000 SCT018 27/23 Q1009 NOSIG

Closest aviation forecast (TAF) to Haji Muhammad Sidik Airport

Closest forecast is Aji Pangeran Tumenggung Pranoto International Airport, 144.7 nm (268.1 km) ENE.

2024/07/17 18:00 (retrieved 2 hours ago)

TAF WALL 171700Z 1718/1824 31004KT 9000 SCT018 TAF WALS 171700Z 1718/1806 33003KT 8000 FEW020